createdAt,value
2023-11-22T00:01:20.070Z,11.57
2023-11-22T00:03:46.915Z,11.63
2023-11-22T00:06:13.841Z,12.07
2023-11-22T00:08:40.540Z,11.20
2023-11-22T00:11:07.506Z,11.80
2023-11-22T00:13:34.387Z,11.90
2023-11-22T00:16:01.617Z,12.37
2023-11-22T00:18:28.589Z,12.77
2023-11-22T00:20:57.167Z,12.63
2023-11-22T00:23:28.528Z,12.73
2023-11-22T00:25:55.615Z,12.33
2023-11-22T00:28:22.289Z,12.03
2023-11-22T00:30:49.209Z,12.73
2023-11-22T00:33:16.758Z,12.63
2023-11-22T00:35:43.535Z,12.70
2023-11-22T00:38:10.310Z,13.27
2023-11-22T00:40:37.177Z,13.50
2023-11-22T00:43:03.882Z,12.27
2023-11-22T00:45:31.049Z,12.50
2023-11-22T00:47:58.116Z,13.00
2023-11-22T00:50:24.928Z,13.33
2023-11-22T00:52:51.690Z,12.57
2023-11-22T00:55:18.655Z,12.97
2023-11-22T00:57:45.315Z,13.20
2023-11-22T01:00:13.886Z,13.50
2023-11-22T01:02:41.074Z,14.47
2023-11-22T01:05:12.450Z,13.90
2023-11-22T01:07:39.773Z,13.33
2023-11-22T01:10:07.701Z,13.53
2023-11-22T01:12:34.572Z,13.87
2023-11-22T01:15:01.430Z,13.80
2023-11-22T01:17:28.802Z,13.47
2023-11-22T01:19:55.625Z,13.57
2023-11-22T01:22:22.458Z,12.97
2023-11-22T01:24:49.953Z,13.73
2023-11-22T01:27:18.514Z,13.10
2023-11-22T01:29:45.255Z,12.87
2023-11-22T01:32:12.158Z,14.33
2023-11-22T01:34:38.953Z,13.43
2023-11-22T01:37:05.774Z,12.97
2023-11-22T01:39:33.555Z,13.13
2023-11-22T01:42:00.521Z,14.57
2023-11-22T01:44:28.162Z,13.00
2023-11-22T01:46:56.796Z,14.47
2023-11-22T01:49:24.879Z,13.43
2023-11-22T01:51:51.739Z,14.23
2023-11-22T01:54:19.884Z,14.13
2023-11-22T01:56:46.699Z,14.13
2023-11-22T01:59:14.355Z,13.80
2023-11-22T02:01:41.799Z,13.70
2023-11-22T02:04:08.576Z,13.07
2023-11-22T02:06:36.798Z,13.90
2023-11-22T02:09:04.091Z,13.70
2023-11-22T02:11:30.907Z,14.43
2023-11-22T02:13:57.713Z,14.13
2023-11-22T02:16:25.048Z,14.03
2023-11-22T02:18:51.868Z,12.90
2023-11-22T02:21:19.553Z,13.40
2023-11-22T02:23:46.410Z,12.77
2023-11-22T02:26:13.573Z,13.47
2023-11-22T02:28:40.387Z,14.13
2023-11-22T02:31:07.214Z,13.70
2023-11-22T02:33:33.906Z,12.90
2023-11-22T02:36:00.706Z,13.37
2023-11-22T02:38:29.313Z,12.97
2023-11-22T02:40:56.280Z,13.30
2023-11-22T02:43:24.444Z,13.57
2023-11-22T02:45:51.455Z,13.30
2023-11-22T02:48:19.820Z,12.93
2023-11-22T02:50:46.745Z,13.03
2023-11-22T02:53:13.917Z,13.63
2023-11-22T02:55:40.754Z,13.90
2023-11-22T02:58:07.784Z,14.43
2023-11-22T03:00:36.034Z,13.30
2023-11-22T03:03:05.244Z,13.77
2023-11-22T03:05:32.120Z,14.20
2023-11-22T03:07:59.466Z,13.10
2023-11-22T03:10:26.646Z,14.43
2023-11-22T03:12:53.373Z,13.97
2023-11-22T03:15:20.297Z,14.03
2023-11-22T03:17:47.122Z,13.57
2023-11-22T03:20:14.291Z,13.43
2023-11-22T03:22:41.464Z,13.40
2023-11-22T03:25:11.421Z,13.10
2023-11-22T03:27:39.139Z,13.27
2023-11-22T03:30:07.826Z,13.93
2023-11-22T03:32:39.090Z,13.10
2023-11-22T03:35:07.771Z,13.40
2023-11-22T03:37:35.241Z,13.07
2023-11-22T03:40:04.064Z,13.43
2023-11-22T03:42:30.988Z,13.33
2023-11-22T03:45:00.313Z,12.97
2023-11-22T03:47:27.969Z,13.40
2023-11-22T03:49:55.052Z,13.37
2023-11-22T03:52:21.948Z,12.90
2023-11-22T03:54:48.706Z,12.23
2023-11-22T03:57:15.418Z,12.97
2023-11-22T03:59:44.237Z,13.47
2023-11-22T04:02:11.466Z,12.23
2023-11-22T04:04:40.808Z,11.90
2023-11-22T04:07:08.684Z,12.43
2023-11-22T04:09:35.556Z,12.43
2023-11-22T04:12:02.226Z,12.10
2023-11-22T04:14:29.127Z,12.30
2023-11-22T04:16:56.747Z,12.47
2023-11-22T04:19:23.839Z,12.93
2023-11-22T04:21:51.030Z,11.67
2023-11-22T04:24:18.848Z,12.27
2023-11-22T04:26:48.724Z,10.27
2023-11-22T04:29:16.712Z,10.10
2023-11-22T04:31:43.710Z,8.80
2023-11-22T04:34:10.457Z,8.73
2023-11-22T04:36:37.339Z,8.97
2023-11-22T04:39:05.609Z,8.50
2023-11-22T04:41:32.855Z,7.70
2023-11-22T04:43:59.728Z,8.07
2023-11-22T04:46:26.404Z,7.47
2023-11-22T04:48:53.760Z,8.10
2023-11-22T04:51:20.912Z,8.80
2023-11-22T04:53:47.731Z,7.90
2023-11-22T04:56:14.470Z,8.90
2023-11-22T04:58:41.358Z,9.37
2023-11-22T05:01:11.247Z,9.10
2023-11-22T05:03:38.530Z,9.13
2023-11-22T05:06:05.744Z,9.40
2023-11-22T05:08:32.606Z,10.30
2023-11-22T05:11:00.026Z,10.53
2023-11-22T05:13:26.964Z,10.20
2023-11-22T05:15:54.464Z,11.87
2023-11-22T05:18:21.320Z,13.23
2023-11-22T05:20:49.732Z,12.07
2023-11-22T05:23:16.560Z,14.50
2023-11-22T05:25:43.334Z,15.57
2023-11-22T05:28:10.081Z,15.43
2023-11-22T05:30:37.448Z,16.77
2023-11-22T05:33:04.317Z,15.37
2023-11-22T05:35:31.080Z,14.93
2023-11-22T05:37:58.763Z,14.20
2023-11-22T05:40:26.600Z,15.50
2023-11-22T05:42:53.394Z,15.27
2023-11-22T05:45:20.586Z,15.73
2023-11-22T05:47:47.713Z,16.13
2023-11-22T05:50:14.669Z,15.57
2023-11-22T05:52:41.786Z,16.33
2023-11-22T05:55:09.606Z,15.30
2023-11-22T05:57:36.957Z,16.20
2023-11-22T06:00:04.985Z,16.03
2023-11-22T06:02:31.874Z,16.43
2023-11-22T06:04:58.947Z,15.17
2023-11-22T06:07:26.071Z,17.47
2023-11-22T06:09:53.018Z,18.00
2023-11-22T06:12:21.744Z,16.20
2023-11-22T06:14:52.088Z,16.70
2023-11-22T06:17:19.203Z,16.50
2023-11-22T06:19:46.306Z,17.10
2023-11-22T06:22:13.136Z,17.00
2023-11-22T06:24:39.838Z,18.10
2023-11-22T06:27:06.703Z,16.90
2023-11-22T06:29:33.486Z,17.73
2023-11-22T06:32:00.544Z,16.93
2023-11-22T06:34:28.735Z,18.23
2023-11-22T06:36:55.518Z,17.83
2023-11-22T06:39:23.764Z,16.63
2023-11-22T06:41:50.837Z,17.63
2023-11-22T06:44:17.678Z,16.67
2023-11-22T06:46:44.468Z,17.07
2023-11-22T06:49:11.278Z,17.70
2023-11-22T06:51:38.198Z,17.57
2023-11-22T06:54:04.983Z,17.27
2023-11-22T06:56:33.954Z,17.67
2023-11-22T06:59:00.648Z,17.47
2023-11-22T07:01:27.477Z,16.70
2023-11-22T07:03:55.009Z,14.90
2023-11-22T07:06:23.518Z,16.60
2023-11-22T07:08:50.945Z,16.50
2023-11-22T07:11:25.069Z,16.43
2023-11-22T07:13:53.496Z,16.77
2023-11-22T07:16:21.912Z,17.30
2023-11-22T07:18:48.914Z,17.67
2023-11-22T07:21:16.261Z,17.20
2023-11-22T07:23:43.354Z,16.07
2023-11-22T07:26:11.494Z,17.67
2023-11-22T07:28:38.369Z,15.93
2023-11-22T07:31:07.265Z,14.80
2023-11-22T07:33:34.357Z,13.70
2023-11-22T07:36:01.155Z,15.50
2023-11-22T07:38:28.881Z,14.93
2023-11-22T07:40:55.619Z,15.50
2023-11-22T07:43:22.424Z,15.63
2023-11-22T07:45:49.981Z,16.87
2023-11-22T07:48:17.085Z,15.73
2023-11-22T07:50:48.124Z,16.73
2023-11-22T07:53:15.953Z,16.97
2023-11-22T07:55:43.185Z,16.43
2023-11-22T07:58:10.074Z,16.87
2023-11-22T08:00:38.094Z,17.70
2023-11-22T08:03:05.123Z,18.33
2023-11-22T08:05:37.583Z,18.40
2023-11-22T08:08:09.410Z,19.30
2023-11-22T08:10:36.848Z,19.53
2023-11-22T08:13:04.566Z,19.50
2023-11-22T08:15:35.038Z,18.40
2023-11-22T08:18:02.064Z,18.93
2023-11-22T08:20:29.145Z,19.67
2023-11-22T08:22:56.115Z,19.60
2023-11-22T08:25:22.860Z,18.17
2023-11-22T08:27:50.787Z,18.23
2023-11-22T08:30:19.117Z,18.07
2023-11-22T08:32:52.581Z,18.80
2023-11-22T08:35:21.110Z,17.43
2023-11-22T08:37:48.404Z,18.47
2023-11-22T08:40:15.574Z,17.30
2023-11-22T08:42:42.845Z,17.97
2023-11-22T08:45:10.221Z,17.87
2023-11-22T08:47:37.737Z,18.27
2023-11-22T08:50:06.630Z,18.03
2023-11-22T08:52:33.534Z,17.13
2023-11-22T08:55:01.571Z,18.73
2023-11-22T08:57:28.623Z,17.87
2023-11-22T08:59:55.933Z,19.77
2023-11-22T09:02:23.700Z,17.70
2023-11-22T09:04:50.692Z,16.97
2023-11-22T09:07:17.723Z,18.33
2023-11-22T09:09:44.680Z,18.60
2023-11-22T09:12:13.868Z,16.90
2023-11-22T09:14:42.419Z,17.43
2023-11-22T09:17:10.860Z,18.50
2023-11-22T09:19:38.420Z,18.07
2023-11-22T09:22:07.446Z,17.83
2023-11-22T09:24:34.799Z,17.07
2023-11-22T09:27:03.730Z,18.10
2023-11-22T09:29:30.593Z,17.13
2023-11-22T09:31:57.760Z,17.10
2023-11-22T09:34:25.531Z,17.60
2023-11-22T09:36:52.352Z,16.70
2023-11-22T09:39:22.533Z,15.60
2023-11-22T09:41:49.733Z,16.23
2023-11-22T09:44:17.680Z,16.50
2023-11-22T09:46:46.792Z,16.07
2023-11-22T09:49:16.404Z,16.50
2023-11-22T09:51:45.165Z,17.87
2023-11-22T09:54:15.583Z,18.77
2023-11-22T09:56:42.856Z,18.70
2023-11-22T09:59:09.870Z,17.90
2023-11-22T10:01:40.164Z,17.43
2023-11-22T10:04:07.469Z,18.23
2023-11-22T10:06:37.354Z,16.77
2023-11-22T10:09:09.227Z,15.10
2023-11-22T10:11:41.482Z,15.37
2023-11-22T10:14:09.905Z,15.00
2023-11-22T10:16:36.645Z,15.40
2023-11-22T10:19:07.838Z,15.00
2023-11-22T10:21:34.977Z,14.47
2023-11-22T10:24:03.830Z,14.10
2023-11-22T10:26:31.258Z,12.90
2023-11-22T10:28:59.172Z,13.53
2023-11-22T10:31:27.042Z,13.70
2023-11-22T10:33:55.038Z,13.80
2023-11-22T10:36:23.080Z,13.87
2023-11-22T10:38:50.162Z,12.03
2023-11-22T10:41:17.475Z,12.67
2023-11-22T10:43:46.227Z,12.77
2023-11-22T10:46:15.106Z,12.10
2023-11-22T10:48:43.107Z,13.30
2023-11-22T10:51:14.312Z,13.63
2023-11-22T10:53:49.883Z,13.10
2023-11-22T10:56:18.819Z,12.17
2023-11-22T10:58:53.276Z,13.77
2023-11-22T11:01:26.938Z,14.30
2023-11-22T11:04:08.018Z,12.93
2023-11-22T11:06:37.408Z,13.53
2023-11-22T11:09:09.893Z,12.57
2023-11-22T11:11:38.705Z,12.90
2023-11-22T11:14:07.041Z,12.80
2023-11-22T11:16:38.926Z,13.23
2023-11-22T11:19:07.064Z,12.70
2023-11-22T11:21:34.306Z,12.57
2023-11-22T11:24:04.538Z,12.17
2023-11-22T11:26:37.637Z,12.00
2023-11-22T11:29:05.457Z,11.13
2023-11-22T11:31:36.336Z,11.20
2023-11-22T11:34:06.728Z,11.23
2023-11-22T11:36:33.783Z,10.40
2023-11-22T11:39:02.912Z,11.00
2023-11-22T11:41:33.924Z,10.90
2023-11-22T11:44:04.217Z,11.27
2023-11-22T11:46:31.655Z,11.47
2023-11-22T11:48:58.612Z,10.33
2023-11-22T11:51:27.468Z,10.13
2023-11-22T11:53:57.703Z,10.80
2023-11-22T11:56:27.427Z,9.63
2023-11-22T11:59:00.222Z,10.30
2023-11-22T12:01:29.164Z,10.43
2023-11-22T12:03:55.980Z,10.57
2023-11-22T12:06:23.414Z,9.77
2023-11-22T12:08:50.834Z,9.80
2023-11-22T12:11:19.756Z,9.37
2023-11-22T12:13:50.466Z,9.33
2023-11-22T12:16:19.423Z,9.33
2023-11-22T12:18:50.964Z,9.60
2023-11-22T12:21:19.299Z,9.67
2023-11-22T12:23:49.445Z,8.97
2023-11-22T12:26:19.395Z,10.23
2023-11-22T12:28:54.356Z,10.50
2023-11-22T12:31:30.820Z,10.13
2023-11-22T12:34:00.326Z,9.87
2023-11-22T12:36:27.297Z,10.37
2023-11-22T12:38:56.715Z,9.83
2023-11-22T12:41:23.626Z,10.37
2023-11-22T12:44:11.140Z,9.77
2023-11-22T12:47:01.188Z,9.07
2023-11-22T12:49:28.901Z,9.23
2023-11-22T12:51:58.381Z,9.60
2023-11-22T12:54:25.403Z,9.90
2023-11-22T12:56:55.506Z,9.23
2023-11-22T12:59:22.444Z,9.07
2023-11-22T13:01:49.258Z,9.13
2023-11-22T13:04:17.160Z,9.40
2023-11-22T13:06:44.045Z,10.17
2023-11-22T13:09:15.792Z,9.47
2023-11-22T13:11:44.856Z,9.07
2023-11-22T13:14:15.319Z,9.13
2023-11-22T13:16:42.766Z,9.83
2023-11-22T13:19:10.556Z,9.30
2023-11-22T13:21:37.814Z,9.60
2023-11-22T13:24:06.197Z,9.37
2023-11-22T13:26:32.988Z,9.27
2023-11-22T13:29:00.243Z,9.33
2023-11-22T13:31:27.097Z,9.57
2023-11-22T13:33:53.942Z,9.90
2023-11-22T13:36:20.842Z,10.03
2023-11-22T13:38:47.666Z,10.47
2023-11-22T13:41:14.656Z,9.47
2023-11-22T13:43:41.392Z,10.17
2023-11-22T13:46:11.425Z,10.40
2023-11-22T13:48:38.500Z,10.63
2023-11-22T13:51:07.253Z,9.53
2023-11-22T13:53:37.974Z,9.83
2023-11-22T13:56:10.274Z,9.70
2023-11-22T13:58:37.439Z,9.97
2023-11-22T14:01:07.547Z,9.87
2023-11-22T14:03:34.767Z,10.17
2023-11-22T14:06:01.910Z,9.63
2023-11-22T14:08:29.123Z,10.17
2023-11-22T14:10:55.928Z,10.47
2023-11-22T14:13:23.483Z,10.10
2023-11-22T14:15:50.966Z,9.20
2023-11-22T14:18:18.610Z,9.73
2023-11-22T14:20:45.521Z,9.80
2023-11-22T14:23:12.267Z,10.87
2023-11-22T14:25:41.703Z,10.17
2023-11-22T14:28:10.889Z,9.03
2023-11-22T14:30:38.494Z,9.27
2023-11-22T14:33:08.276Z,9.77
2023-11-22T14:35:36.658Z,9.57
2023-11-22T14:38:05.124Z,9.50
2023-11-22T14:40:32.618Z,9.00
2023-11-22T14:42:59.631Z,9.17
2023-11-22T14:45:28.189Z,9.00
2023-11-22T14:47:55.222Z,9.10
2023-11-22T14:50:22.760Z,9.07
2023-11-22T14:52:51.205Z,9.03
2023-11-22T14:55:20.141Z,8.67
2023-11-22T14:57:46.846Z,9.17
2023-11-22T15:00:15.547Z,9.20
2023-11-22T15:02:48.112Z,9.27
2023-11-22T15:05:15.194Z,8.80
2023-11-22T15:07:43.612Z,9.03
2023-11-22T15:10:11.824Z,8.97
2023-11-22T15:12:43.404Z,8.97
2023-11-22T15:15:12.203Z,9.57
2023-11-22T15:17:39.453Z,9.10
2023-11-22T15:20:16.498Z,9.23
2023-11-22T15:22:43.906Z,9.17
2023-11-22T15:25:16.791Z,9.00
2023-11-22T15:27:43.698Z,9.50
2023-11-22T15:30:13.425Z,9.43
2023-11-22T15:32:40.661Z,8.60
2023-11-22T15:35:08.047Z,9.73
2023-11-22T15:37:35.209Z,8.97
2023-11-22T15:40:02.551Z,9.33
2023-11-22T15:42:30.377Z,8.83
2023-11-22T15:44:57.338Z,9.47
2023-11-22T15:47:24.431Z,8.90
2023-11-22T15:49:52.152Z,9.10
2023-11-22T15:52:19.237Z,8.73
2023-11-22T15:54:46.580Z,8.93
2023-11-22T15:57:13.445Z,9.60
2023-11-22T15:59:40.475Z,9.10
2023-11-22T16:02:08.419Z,8.60
2023-11-22T16:04:35.694Z,9.57
2023-11-22T16:07:03.963Z,9.57
2023-11-22T16:09:31.194Z,9.17
2023-11-22T16:11:58.583Z,8.43
2023-11-22T16:14:25.547Z,8.77
2023-11-22T16:16:52.681Z,9.20
2023-11-22T16:19:19.654Z,9.40
2023-11-22T16:21:48.446Z,9.77
2023-11-22T16:24:16.021Z,9.53
2023-11-22T16:26:43.109Z,9.10
2023-11-22T16:29:15.544Z,9.13
2023-11-22T16:31:44.764Z,8.77
2023-11-22T16:34:12.147Z,10.13
2023-11-22T16:36:39.337Z,10.00
2023-11-22T16:39:20.027Z,10.40
2023-11-22T16:41:51.885Z,10.27
2023-11-22T16:44:20.550Z,9.73
2023-11-22T16:46:47.632Z,9.87
2023-11-22T16:49:17.928Z,10.07
2023-11-22T16:51:47.249Z,10.57
2023-11-22T16:54:15.373Z,10.43
2023-11-22T16:56:42.716Z,10.20
2023-11-22T17:52:55.842Z,12.83
2023-11-22T17:55:22.840Z,14.17
2023-11-22T17:57:49.679Z,13.63
2023-11-22T18:00:18.042Z,15.83
2023-11-22T18:02:44.979Z,15.37
2023-11-22T18:05:12.024Z,17.23
2023-11-22T18:07:39.001Z,15.57
2023-11-22T18:10:09.291Z,17.73
2023-11-22T18:12:36.182Z,16.37
2023-11-22T18:15:03.863Z,17.30
2023-11-22T18:17:31.059Z,17.63
2023-11-22T18:19:58.969Z,16.00
2023-11-22T18:22:25.815Z,17.23
2023-11-22T18:24:52.580Z,16.70
2023-11-22T18:27:19.556Z,17.23
2023-11-22T18:29:46.650Z,16.87
2023-11-22T18:32:14.371Z,17.20
2023-11-22T18:34:42.097Z,16.90
2023-11-22T18:37:09.007Z,16.93
2023-11-22T18:39:35.966Z,17.00
2023-11-22T18:42:03.046Z,16.17
2023-11-22T18:44:32.005Z,16.57
2023-11-22T18:46:59.601Z,17.80
2023-11-22T18:49:28.836Z,18.47
2023-11-22T18:51:55.730Z,17.03
2023-11-22T18:54:22.535Z,16.37
2023-11-22T18:56:49.892Z,17.90
2023-11-22T18:59:16.938Z,17.27
2023-11-22T19:01:44.474Z,17.53
2023-11-22T19:04:11.249Z,17.23
2023-11-22T19:06:38.115Z,17.03
2023-11-22T19:09:12.005Z,16.57
2023-11-22T19:11:40.676Z,17.10
2023-11-22T19:14:08.890Z,16.67
2023-11-22T19:16:35.939Z,16.50
2023-11-22T19:19:03.080Z,16.90
2023-11-22T19:21:31.532Z,17.53
2023-11-22T19:24:02.080Z,16.80
2023-11-22T19:26:35.056Z,16.00
2023-11-22T19:29:02.233Z,16.03
2023-11-22T19:31:29.247Z,16.23
2023-11-22T19:33:57.651Z,16.20
2023-11-22T19:36:27.897Z,16.20
2023-11-22T19:38:55.518Z,16.17
2023-11-22T19:41:23.117Z,17.63
2023-11-22T19:43:50.420Z,15.90
2023-11-22T19:46:17.311Z,17.53
2023-11-22T19:48:44.902Z,15.80
2023-11-22T19:51:13.020Z,16.53
2023-11-22T19:53:39.941Z,16.93
2023-11-22T19:56:06.934Z,16.53
2023-11-22T19:58:34.069Z,16.53
2023-11-22T20:01:01.501Z,17.67
2023-11-22T20:03:31.216Z,16.80
2023-11-22T20:06:01.562Z,16.40
2023-11-22T20:08:32.204Z,15.50
2023-11-22T20:11:01.504Z,15.87
2023-11-22T20:13:30.537Z,15.90
2023-11-22T20:16:01.328Z,16.03
2023-11-22T20:18:31.335Z,17.27
2023-11-22T20:21:02.404Z,16.20
2023-11-22T20:23:31.682Z,16.10
2023-11-22T20:26:00.717Z,16.33
2023-11-22T20:28:30.483Z,15.83
2023-11-22T20:30:59.510Z,16.83
2023-11-22T20:33:28.679Z,15.63
2023-11-22T20:35:58.921Z,16.17
2023-11-22T20:38:28.172Z,15.97
2023-11-22T20:40:58.695Z,15.40
2023-11-22T20:43:27.950Z,14.73
2023-11-22T20:46:00.083Z,16.37
2023-11-22T20:48:31.261Z,14.90
2023-11-22T20:51:00.849Z,15.40
2023-11-22T20:53:31.859Z,15.80
2023-11-22T20:56:01.903Z,15.90
2023-11-22T20:58:30.870Z,14.60
2023-11-22T21:01:00.211Z,15.07
2023-11-22T21:03:30.989Z,14.97
2023-11-22T21:06:01.201Z,15.57
2023-11-22T21:08:30.914Z,14.10
2023-11-22T21:11:01.008Z,15.13
2023-11-22T21:13:30.330Z,15.97
2023-11-22T21:16:01.191Z,15.70
2023-11-22T21:18:31.103Z,13.93
2023-11-22T21:21:01.333Z,15.83
2023-11-22T21:23:30.642Z,15.03
2023-11-22T21:26:01.396Z,15.40
2023-11-22T21:28:30.439Z,14.47
2023-11-22T21:31:02.222Z,14.30
2023-11-22T21:33:34.297Z,15.33
2023-11-22T21:36:04.520Z,14.90
2023-11-22T21:38:34.778Z,16.17
2023-11-22T21:41:03.256Z,14.73
2023-11-22T21:43:32.278Z,14.63
2023-11-22T21:46:04.147Z,14.63
2023-11-22T21:48:34.404Z,14.67
2023-11-22T21:51:05.425Z,15.13
2023-11-22T21:53:35.371Z,13.97
2023-11-22T21:56:08.402Z,14.00
2023-11-22T21:58:38.974Z,14.23
2023-11-22T22:01:12.630Z,13.90
2023-11-22T22:03:44.065Z,14.07
2023-11-22T22:06:13.538Z,14.37
2023-11-22T22:08:48.184Z,14.67
2023-11-22T22:11:18.399Z,13.43
2023-11-22T22:13:47.693Z,13.07
2023-11-22T22:16:18.219Z,13.13
2023-11-22T22:18:48.786Z,13.73
2023-11-22T22:21:17.679Z,13.53
2023-11-22T22:23:47.673Z,13.33
2023-11-22T22:26:24.985Z,13.63
2023-11-22T22:28:55.173Z,11.97
2023-11-22T22:31:26.671Z,12.37
2023-11-22T22:33:56.670Z,12.17
2023-11-22T22:36:26.717Z,12.30
2023-11-22T22:38:56.031Z,11.53
2023-11-22T22:41:25.783Z,11.97
2023-11-22T22:43:55.194Z,11.67
2023-11-22T22:46:23.895Z,11.43
2023-11-22T22:48:52.923Z,11.80
2023-11-22T22:51:22.173Z,10.80
2023-11-22T22:53:51.075Z,10.90
2023-11-22T22:56:21.461Z,11.43
2023-11-22T22:58:50.954Z,10.00
2023-11-22T23:01:20.080Z,10.23
2023-11-22T23:03:50.314Z,10.03
2023-11-22T23:06:28.098Z,10.83
2023-11-22T23:08:58.442Z,10.20
2023-11-22T23:11:27.377Z,9.00
2023-11-22T23:13:57.643Z,9.20
2023-11-22T23:16:28.441Z,10.20
2023-11-22T23:19:04.276Z,8.60
2023-11-22T23:21:39.057Z,9.47
2023-11-22T23:24:09.286Z,7.73
2023-11-22T23:26:39.838Z,9.60
2023-11-22T23:29:08.320Z,8.60
2023-11-22T23:31:41.486Z,8.57
2023-11-22T23:34:10.422Z,8.77
2023-11-22T23:36:43.389Z,8.47
2023-11-22T23:39:14.473Z,8.47
2023-11-22T23:41:43.559Z,8.20
2023-11-22T23:44:13.757Z,8.13
2023-11-22T23:46:42.880Z,8.17
2023-11-22T23:49:12.522Z,8.17
2023-11-22T23:51:41.669Z,8.10
2023-11-22T23:54:12.337Z,8.43
2023-11-22T23:56:41.711Z,8.73
2023-11-22T23:59:11.149Z,7.80
